Time;durP1;ratioP1;P1;durP2;ratioP2;P2;SDS_P1;SDS_P2;PMS_P1;PMS_P2;Temp;Humidity;BMP_temperature;BMP_pressure;BME280_temperature;BME280_humidity;BME280_pressure;Samples;Min_cycle;Max_cycle;Signal;HPM_P1;HPM_P2
2024/02/18 05:02:38;;;;;;;2.28;2.15;;;3.60;99.90;;;;;;4891271;29;20294;-67
2024/02/18 05:05:05;;;;;;;3.60;2.80;;;3.60;99.90;;;;;;4908538;29;20270;-68
2024/02/18 05:07:32;;;;;;;3.25;3.00;;;3.70;99.90;;;;;;4894850;29;21523;-68
2024/02/18 05:09:59;;;;;;;3.78;2.75;;;3.70;99.90;;;;;;4895046;29;20223;-67
2024/02/18 05:12:25;;;;;;;5.07;2.55;;;3.80;99.90;;;;;;4895117;29;20237;-67
2024/02/18 05:14:52;;;;;;;6.63;2.88;;;3.80;99.90;;;;;;4894762;29;20224;-67
2024/02/18 05:17:19;;;;;;;2.92;2.70;;;3.90;99.90;;;;;;4901697;29;20230;-68
2024/02/18 05:19:49;;;;;;;2.88;2.78;;;3.90;99.90;;;;;;4895208;29;20258;-68
2024/02/18 05:22:15;;;;;;;3.97;3.45;;;4.00;99.90;;;;;;4894621;29;20310;-67
2024/02/18 05:24:42;;;;;;;3.05;2.70;;;4.00;99.90;;;;;;4888646;29;20215;-68
2024/02/18 05:27:09;;;;;;;5.10;3.10;;;4.00;99.90;;;;;;4895462;29;20214;-68
2024/02/18 05:29:36;;;;;;;2.38;1.92;;;3.90;99.90;;;;;;4892736;29;20231;-68
2024/02/18 05:32:02;;;;;;;2.33;2.22;;;3.90;99.90;;;;;;4897556;29;20253;-68
2024/02/18 05:34:29;;;;;;;1.85;1.75;;;3.90;99.90;;;;;;4898416;29;20698;-68
2024/02/18 05:36:57;;;;;;;5.18;3.58;;;3.90;99.90;;;;;;4898571;29;20216;-67
2024/02/18 05:39:24;;;;;;;5.22;2.88;;;3.90;99.90;;;;;;4898311;29;20219;-68
2024/02/18 05:41:50;;;;;;;3.20;2.95;;;3.90;99.90;;;;;;4898083;29;20231;-68
2024/02/18 05:44:17;;;;;;;2.92;2.70;;;3.90;99.90;;;;;;4897821;29;20712;-68
2024/02/18 05:46:44;;;;;;;3.78;3.40;;;4.00;99.90;;;;;;4904756;29;20674;-68
2024/02/18 05:49:11;;;;;;;6.65;3.60;;;4.00;99.90;;;;;;4898236;29;20223;-68
2024/02/18 05:51:38;;;;;;;4.05;2.90;;;4.10;99.90;;;;;;4898232;29;20231;-68
2024/02/18 05:54:06;;;;;;;3.25;3.08;;;4.10;99.90;;;;;;4899011;29;20212;-68
2024/02/18 05:56:33;;;;;;;3.25;3.00;;;4.10;99.90;;;;;;4897857;29;20230;-68
2024/02/18 05:59:00;;;;;;;4.07;2.53;;;4.10;99.90;;;;;;4898522;29;20216;-69
2024/02/18 06:01:27;;;;;;;3.08;2.22;;;4.10;99.90;;;;;;4896311;29;20234;-69
2024/02/18 06:03:53;;;;;;;2.45;2.25;;;4.20;99.90;;;;;;4897500;29;20235;-68
2024/02/18 06:06:20;;;;;;;7.05;3.70;;;4.20;99.90;;;;;;4900977;29;20203;-68
2024/02/18 06:08:47;;;;;;;11.18;3.97;;;4.20;99.90;;;;;;4897376;29;20218;-70
2024/02/18 06:11:15;;;;;;;11.23;3.78;;;4.20;99.90;;;;;;4897462;29;20275;-68
2024/02/18 06:13:42;;;;;;;3.08;2.75;;;4.30;99.90;;;;;;4897745;29;20203;-69
2024/02/18 06:16:08;;;;;;;3.20;2.55;;;4.30;99.90;;;;;;4892895;29;20214;-68
2024/02/18 06:18:35;;;;;;;3.03;2.83;;;4.30;99.90;;;;;;4891686;29;20211;-69
2024/02/18 06:21:02;;;;;;;3.97;3.55;;;4.40;99.90;;;;;;4897681;29;20266;-69
2024/02/18 06:23:29;;;;;;;3.53;3.20;;;4.40;99.90;;;;;;4890901;29;20239;-69
2024/02/18 06:25:56;;;;;;;6.10;3.88;;;4.40;99.90;;;;;;4892095;29;20221;-68
2024/02/18 06:28:31;;;;;;;2.67;2.58;;;4.40;99.90;;;;;;4882714;29;20252;-68
2024/02/18 06:31:00;;;;;;;5.25;2.70;;;4.50;99.90;;;;;;4890925;29;20248;-69
2024/02/18 06:33:26;;;;;;;9.88;4.10;;;4.50;99.90;;;;;;4890977;29;20203;-69
2024/02/18 06:35:53;;;;;;;3.30;3.00;;;4.50;99.90;;;;;;4889868;29;20935;-68
2024/02/18 06:38:20;;;;;;;2.63;2.42;;;4.60;99.90;;;;;;4896270;29;20238;-69
2024/02/18 06:40:46;;;;;;;12.45;4.25;;;4.60;99.90;;;;;;4889107;29;20699;-69
2024/02/18 06:43:13;;;;;;;5.57;3.35;;;4.70;99.90;;;;;;4890452;29;20234;-69
2024/02/18 06:45:41;;;;;;;8.70;3.45;;;4.70;99.90;;;;;;4891870;29;20213;-67
2024/02/18 06:48:08;;;;;;;6.78;4.50;;;4.70;99.90;;;;;;4895170;29;20209;-68
2024/02/18 06:50:35;;;;;;;4.53;4.00;;;4.80;99.90;;;;;;4891539;29;20246;-69
2024/02/18 06:53:01;;;;;;;6.05;3.90;;;4.80;99.90;;;;;;4894773;29;20272;-66
2024/02/18 06:55:28;;;;;;;16.25;4.13;;;4.80;99.90;;;;;;4885526;29;20224;-67
2024/02/18 06:57:55;;;;;;;12.43;3.50;;;4.80;99.90;;;;;;4886345;29;20217;-67
2024/02/18 07:00:22;;;;;;;4.25;3.85;;;4.80;99.90;;;;;;4895721;29;20238;-68
2024/02/18 07:02:52;;;;;;;4.55;4.10;;;4.80;99.90;;;;;;4889412;29;20324;-68
2024/02/18 07:05:19;;;;;;;3.83;3.05;;;4.80;99.90;;;;;;4887802;29;20219;-68
2024/02/18 07:07:45;;;;;;;7.35;4.38;;;4.90;99.90;;;;;;4886494;29;20218;-68
2024/02/18 07:10:12;;;;;;;17.33;5.32;;;5.00;99.90;;;;;;4895598;29;20676;-68
2024/02/18 07:12:39;;;;;;;7.80;4.70;;;5.10;99.90;;;;;;4887631;29;20739;-68
2024/02/18 07:15:06;;;;;;;7.45;5.70;;;5.10;99.90;;;;;;4888309;29;20213;-67
2024/02/18 07:17:33;;;;;;;4.50;4.15;;;5.20;99.90;;;;;;4893390;29;20213;-68
2024/02/18 07:20:01;;;;;;;8.98;4.95;;;5.10;99.90;;;;;;4891673;29;20206;-67
2024/02/18 07:22:28;;;;;;;4.07;3.67;;;5.10;99.90;;;;;;4891399;29;20225;-68
2024/02/18 07:24:56;;;;;;;11.15;7.18;;;5.10;99.90;;;;;;4887964;29;20209;-68
2024/02/18 07:27:23;;;;;;;4.78;3.30;;;5.10;99.90;;;;;;4895523;29;20213;-68
2024/02/18 07:29:49;;;;;;;10.88;4.75;;;5.10;99.90;;;;;;4895373;29;20811;-68
2024/02/18 07:32:16;;;;;;;5.95;4.75;;;5.20;99.90;;;;;;4895604;29;20230;-68
2024/02/18 07:34:43;;;;;;;7.28;5.43;;;5.20;99.90;;;;;;4888672;29;20217;-68
2024/02/18 07:37:11;;;;;;;6.45;5.00;;;5.20;99.90;;;;;;4887999;29;20209;-68
2024/02/18 07:39:38;;;;;;;7.25;4.60;;;5.20;99.90;;;;;;4890629;29;20276;-68
2024/02/18 07:42:05;;;;;;;11.70;4.90;;;5.20;99.90;;;;;;4893240;29;20747;-68
2024/02/18 07:44:32;;;;;;;5.63;4.60;;;5.20;99.90;;;;;;4893499;29;20230;-68
2024/02/18 07:46:59;;;;;;;8.52;5.85;;;5.30;99.90;;;;;;4890374;29;20228;-68
2024/02/18 07:49:25;;;;;;;6.70;4.55;;;5.20;99.90;;;;;;4897179;29;20208;-68
2024/02/18 07:51:52;;;;;;;6.05;4.53;;;5.30;99.90;;;;;;4883429;29;20243;-68
2024/02/18 07:54:20;;;;;;;6.70;3.90;;;5.30;99.90;;;;;;4896231;29;20285;-68
2024/02/18 07:56:48;;;;;;;6.78;4.60;;;5.50;99.90;;;;;;4897204;29;20233;-68
2024/02/18 07:59:16;;;;;;;6.03;5.43;;;5.50;99.90;;;;;;4895117;29;20268;-69
2024/02/18 08:01:44;;;;;;;9.60;5.82;;;5.60;99.90;;;;;;4894786;29;20246;-69
2024/02/18 08:04:11;;;;;;;28.88;6.13;;;5.60;99.90;;;;;;4894849;29;20303;-68
2024/02/18 08:06:38;;;;;;;4.72;4.38;;;5.70;99.90;;;;;;4890571;29;20863;-68
2024/02/18 08:09:05;;;;;;;8.45;5.72;;;5.70;99.90;;;;;;4894410;29;20221;-69
2024/02/18 08:11:33;;;;;;;12.30;5.45;;;5.70;99.90;;;;;;4889428;29;20721;-68
2024/02/18 08:14:00;;;;;;;6.80;6.00;;;5.70;99.90;;;;;;4892288;29;20299;-69
2024/02/18 08:16:28;;;;;;;9.88;5.18;;;5.80;99.90;;;;;;4886785;29;20207;-68
2024/02/18 08:18:55;;;;;;;4.88;4.25;;;5.80;99.90;;;;;;4889658;29;20219;-69
2024/02/18 08:21:23;;;;;;;6.78;4.07;;;5.80;99.90;;;;;;4891844;29;20298;-68
2024/02/18 08:23:50;;;;;;;10.32;5.13;;;5.90;99.90;;;;;;4891520;29;20282;-68
2024/02/18 08:26:20;;;;;;;7.78;5.07;;;5.90;99.90;;;;;;4892131;29;20262;-68
2024/02/18 08:28:48;;;;;;;6.95;4.70;;;6.00;99.90;;;;;;4886694;29;20213;-68
2024/02/18 08:31:16;;;;;;;8.60;5.25;;;6.00;99.90;;;;;;4886965;29;20230;-67
2024/02/18 08:33:43;;;;;;;7.50;4.78;;;6.00;99.90;;;;;;4893447;29;20578;-68
2024/02/18 08:36:09;;;;;;;7.75;4.63;;;6.10;99.90;;;;;;4894364;29;20207;-68
2024/02/18 08:38:38;;;;;;;12.82;7.05;;;6.20;99.90;;;;;;4893300;29;20225;-68
2024/02/18 08:41:05;;;;;;;12.13;5.38;;;6.20;99.90;;;;;;4887014;29;20319;-69
2024/02/18 08:43:33;;;;;;;6.15;5.30;;;6.30;99.90;;;;;;4887391;29;20238;-67
2024/02/18 08:46:01;;;;;;;11.15;6.03;;;6.30;99.90;;;;;;4889607;29;20216;-67
2024/02/18 08:48:28;;;;;;;10.07;5.10;;;6.40;99.90;;;;;;4880786;29;20286;-68
2024/02/18 08:50:55;;;;;;;10.15;5.75;;;6.50;99.90;;;;;;4882150;29;20230;-68
2024/02/18 08:53:22;;;;;;;8.15;6.10;;;6.50;99.90;;;;;;4884478;29;20211;-68
2024/02/18 08:55:49;;;;;;;8.35;5.85;;;6.60;99.90;;;;;;4894571;29;20263;-69
2024/02/18 08:58:16;;;;;;;13.15;7.47;;;6.60;99.90;;;;;;4891582;29;20609;-68
2024/02/18 09:00:45;;;;;;;11.07;6.43;;;6.70;99.90;;;;;;4885694;29;20251;-69
2024/02/18 09:03:13;;;;;;;13.32;6.18;;;6.80;99.90;;;;;;4884796;29;20222;-69
2024/02/18 09:05:40;;;;;;;10.32;6.30;;;6.90;99.90;;;;;;4889024;29;20671;-70
2024/02/18 09:08:08;;;;;;;11.05;6.80;;;7.00;99.90;;;;;;4899660;29;20207;-69
2024/02/18 09:10:36;;;;;;;8.50;6.00;;;7.00;99.90;;;;;;4896314;29;20227;-67
2024/02/18 09:13:04;;;;;;;10.23;5.30;;;7.00;99.90;;;;;;4897927;29;20239;-68
2024/02/18 09:15:31;;;;;;;12.38;6.45;;;7.10;99.90;;;;;;4890604;29;20220;-68
2024/02/18 09:17:57;;;;;;;9.75;5.75;;;7.20;99.90;;;;;;4900450;29;21710;-69
2024/02/18 09:20:25;;;;;;;12.27;8.18;;;7.20;99.90;;;;;;4895921;29;20553;-68
2024/02/18 09:22:52;;;;;;;7.90;5.72;;;7.20;99.90;;;;;;4897306;29;20219;-67
2024/02/18 09:25:19;;;;;;;10.32;6.47;;;7.30;99.90;;;;;;4898346;29;20227;-68
2024/02/18 09:27:46;;;;;;;8.45;5.95;;;7.30;99.90;;;;;;4896525;29;20207;-68
2024/02/18 09:30:14;;;;;;;10.32;5.20;;;7.40;99.90;;;;;;4890676;29;20215;-70
2024/02/18 09:32:44;;;;;;;9.68;7.00;;;7.40;99.90;;;;;;4894856;29;20682;-69
2024/02/18 09:35:11;;;;;;;6.35;5.60;;;7.40;99.90;;;;;;4897489;29;20702;-70
2024/02/18 09:37:39;;;;;;;20.83;10.45;;;7.50;99.90;;;;;;4893374;29;20212;-69
2024/02/18 09:40:08;;;;;;;12.93;7.28;;;7.60;99.90;;;;;;4893458;29;20616;-68
2024/02/18 09:42:36;;;;;;;14.15;8.35;;;7.70;99.90;;;;;;4884738;29;20227;-69
2024/02/18 09:45:03;;;;;;;12.95;7.45;;;7.70;99.90;;;;;;4891427;29;20231;-70
2024/02/18 09:47:31;;;;;;;14.55;7.95;;;7.70;99.90;;;;;;4896161;29;20230;-69
2024/02/18 09:49:59;;;;;;;25.67;14.88;;;7.90;99.90;;;;;;4892658;29;20222;-69
2024/02/18 09:52:26;;;;;;;9.93;8.07;;;7.90;99.90;;;;;;4895342;29;20223;-69
2024/02/18 09:54:55;;;;;;;25.15;16.40;;;8.00;99.90;;;;;;4892735;29;20226;-70
2024/02/18 09:57:22;;;;;;;19.23;11.90;;;8.00;99.90;;;;;;4894640;29;20207;-69
2024/02/18 09:59:48;;;;;;;7.90;5.45;;;8.10;99.90;;;;;;4896661;29;20217;-69
2024/02/18 10:02:18;;;;;;;13.07;8.77;;;8.20;99.90;;;;;;4898197;29;20247;-69
2024/02/18 10:04:46;;;;;;;9.65;6.97;;;8.20;99.90;;;;;;4890256;29;20243;-69
2024/02/18 10:07:14;;;;;;;9.00;6.25;;;8.20;99.90;;;;;;4897939;29;20643;-69
2024/02/18 10:09:41;;;;;;;10.98;6.30;;;8.30;99.90;;;;;;4895183;29;20211;-69
2024/02/18 10:12:11;;;;;;;9.25;6.70;;;8.30;99.90;;;;;;4896582;29;20224;-68
2024/02/18 10:14:38;;;;;;;12.98;8.05;;;8.40;99.90;;;;;;4889221;29;20223;-69
2024/02/18 10:17:05;;;;;;;9.85;5.88;;;8.50;99.90;;;;;;4895910;29;20590;-69
2024/02/18 10:19:31;;;;;;;13.20;6.90;;;8.60;99.90;;;;;;4897155;29;20213;-69
2024/02/18 10:22:00;;;;;;;9.65;6.65;;;8.60;99.90;;;;;;4897209;29;20237;-68
2024/02/18 10:24:27;;;;;;;12.90;6.38;;;8.70;99.90;;;;;;4898017;29;20235;-69
2024/02/18 10:26:56;;;;;;;8.43;4.82;;;8.80;99.90;;;;;;4886355;29;20216;-67
2024/02/18 10:29:25;;;;;;;5.13;4.50;;;8.90;99.90;;;;;;4892513;29;20209;-68
2024/02/18 10:31:51;;;;;;;8.60;5.50;;;8.90;99.90;;;;;;4892653;29;20243;-68
2024/02/18 10:34:19;;;;;;;8.88;4.97;;;8.90;99.90;;;;;;4888200;29;20208;-69
2024/02/18 10:36:48;;;;;;;6.57;5.15;;;9.00;99.90;;;;;;4892331;29;20224;-68
2024/02/18 10:39:16;;;;;;;9.38;5.30;;;9.00;99.90;;;;;;4894986;29;20278;-69
2024/02/18 10:41:50;;;;;;;8.43;5.40;;;9.00;99.90;;;;;;4893421;29;20248;-68
2024/02/18 10:44:18;;;;;;;5.38;4.80;;;9.00;99.90;;;;;;4892455;29;20232;-68
2024/02/18 10:46:50;;;;;;;9.68;5.68;;;9.10;99.90;;;;;;4893131;29;20219;-67
2024/02/18 10:49:22;;;;;;;7.60;5.75;;;9.10;99.90;;;;;;4894727;29;20292;-68
2024/02/18 10:51:54;;;;;;;10.10;5.50;;;9.10;99.90;;;;;;4891175;29;20230;-68
2024/02/18 10:54:28;;;;;;;8.43;4.90;;;9.10;99.90;;;;;;4889029;29;20208;-68
2024/02/18 10:56:57;;;;;;;8.65;5.53;;;9.20;99.90;;;;;;4889743;29;20227;-69
2024/02/18 10:59:28;;;;;;;10.48;5.90;;;9.20;99.90;;;;;;4895349;29;20226;-69
2024/02/18 11:02:02;;;;;;;12.90;5.07;;;9.20;99.90;;;;;;4892675;29;20282;-69
2024/02/18 11:04:30;;;;;;;9.93;5.85;;;9.30;99.90;;;;;;4896139;29;20226;-71
2024/02/18 11:06:57;;;;;;;10.52;6.40;;;9.30;99.90;;;;;;4897033;29;20220;-69
2024/02/18 11:09:25;;;;;;;8.85;5.95;;;9.30;99.90;;;;;;4893420;29;20225;-69
2024/02/18 11:11:53;;;;;;;10.68;7.25;;;9.30;99.90;;;;;;4896386;29;20231;-69
2024/02/18 11:14:20;;;;;;;11.52;5.20;;;9.30;99.90;;;;;;4894862;29;20205;-68
2024/02/18 11:16:48;;;;;;;5.70;5.18;;;9.40;99.90;;;;;;4890944;29;20680;-69
2024/02/18 11:19:18;;;;;;;7.55;6.28;;;9.40;99.90;;;;;;4887567;29;20209;-68
2024/02/18 11:21:47;;;;;;;4.80;4.35;;;9.50;99.90;;;;;;4894599;29;20680;-69
2024/02/18 11:24:14;;;;;;;12.18;8.90;;;9.50;99.90;;;;;;4893038;29;20233;-64
2024/02/18 11:26:41;;;;;;;12.55;8.43;;;9.50;99.90;;;;;;4892019;29;20206;-65
2024/02/18 11:29:08;;;;;;;17.73;11.93;;;9.50;99.90;;;;;;4892986;29;20222;-65
2024/02/18 11:31:35;;;;;;;18.35;11.10;;;9.60;99.90;;;;;;4896652;29;20236;-67
2024/02/18 11:34:03;;;;;;;14.73;7.80;;;9.50;99.90;;;;;;4897206;29;20473;-67
2024/02/18 11:36:31;;;;;;;16.80;7.18;;;9.50;99.90;;;;;;4896387;29;20204;-66
2024/02/18 11:38:58;;;;;;;8.20;6.63;;;9.50;99.90;;;;;;4891207;29;20658;-66
2024/02/18 11:41:27;;;;;;;13.15;6.95;;;9.40;99.90;;;;;;4891382;29;20317;-67
2024/02/18 11:43:55;;;;;;;12.23;6.50;;;9.30;99.90;;;;;;4897520;29;20714;-68
2024/02/18 11:46:24;;;;;;;12.23;7.75;;;9.20;99.90;;;;;;4893558;29;20203;-67
2024/02/18 11:48:51;;;;;;;18.33;10.52;;;9.20;99.90;;;;;;4895783;29;20234;-64
2024/02/18 11:51:18;;;;;;;19.77;9.38;;;9.20;99.90;;;;;;4892050;29;20229;-67
2024/02/18 11:53:47;;;;;;;10.27;7.15;;;9.10;99.90;;;;;;4896939;29;20210;-66
2024/02/18 11:56:14;;;;;;;17.42;8.45;;;9.10;99.90;;;;;;4893750;29;20212;-66
2024/02/18 11:58:42;;;;;;;7.10;5.90;;;9.10;99.90;;;;;;4887229;29;20208;-66
2024/02/18 12:01:09;;;;;;;9.18;4.90;;;9.10;99.90;;;;;;4888198;29;20737;-66
2024/02/18 12:03:36;;;;;;;6.60;4.43;;;9.10;99.90;;;;;;4888945;29;20683;-67
2024/02/18 12:06:05;;;;;;;7.63;4.75;;;9.10;99.90;;;;;;4891989;29;20228;-66
2024/02/18 12:08:32;;;;;;;8.02;5.95;;;9.00;99.90;;;;;;4892832;29;20208;-65
2024/02/18 12:11:03;;;;;;;11.70;4.80;;;9.10;99.90;;;;;;4890123;29;20232;-66
2024/02/18 12:13:30;;;;;;;7.85;5.88;;;9.10;99.90;;;;;;4895043;29;22331;-67
2024/02/18 12:15:58;;;;;;;7.18;4.85;;;9.10;99.90;;;;;;4886837;29;20208;-66
2024/02/18 12:18:25;;;;;;;8.30;4.65;;;9.10;99.90;;;;;;4890939;29;20210;-65
2024/02/18 12:20:53;;;;;;;4.55;4.15;;;9.10;99.90;;;;;;4889243;29;20864;-66
2024/02/18 12:23:20;;;;;;;8.32;5.55;;;9.10;99.90;;;;;;4889074;29;20212;-67
2024/02/18 12:25:47;;;;;;;7.35;5.80;;;9.00;99.90;;;;;;4892834;29;20471;-64
2024/02/18 12:28:15;;;;;;;6.00;5.18;;;9.10;99.90;;;;;;4889595;29;20696;-65
2024/02/18 12:30:42;;;;;;;7.05;5.20;;;9.10;99.90;;;;;;4880220;29;20240;-68
2024/02/18 12:33:10;;;;;;;9.27;7.25;;;9.20;99.90;;;;;;4890955;29;20206;-68
2024/02/18 12:35:37;;;;;;;5.65;5.15;;;9.20;99.90;;;;;;4895588;29;20203;-69
2024/02/18 12:38:05;;;;;;;8.70;6.00;;;9.20;99.90;;;;;;4895782;29;20624;-69
2024/02/18 12:40:32;;;;;;;4.18;3.70;;;9.20;99.90;;;;;;4894695;29;20736;-69
2024/02/18 12:43:00;;;;;;;6.60;5.30;;;9.30;99.90;;;;;;4893941;29;20212;-68
2024/02/18 12:45:29;;;;;;;6.68;5.53;;;9.30;99.90;;;;;;4895307;29;20254;-68
2024/02/18 12:47:59;;;;;;;15.13;9.45;;;9.30;99.90;;;;;;4893768;29;20236;-67
2024/02/18 12:50:27;;;;;;;9.63;6.75;;;9.20;99.90;;;;;;4895638;29;20209;-68
2024/02/18 12:52:54;;;;;;;6.30;5.70;;;9.20;99.90;;;;;;4895230;29;20239;-68
2024/02/18 12:55:22;;;;;;;6.07;5.10;;;9.20;99.90;;;;;;4895751;29;20250;-68
2024/02/18 12:57:49;;;;;;;11.40;5.47;;;9.20;99.90;;;;;;4894360;29;20237;-67
2024/02/18 13:00:16;;;;;;;7.88;5.82;;;9.30;99.90;;;;;;4888909;29;20209;-67
2024/02/18 13:02:45;;;;;;;10.68;5.85;;;9.20;99.90;;;;;;4895523;29;20210;-68
2024/02/18 13:05:13;;;;;;;13.32;6.05;;;9.20;99.90;;;;;;4893552;29;20237;-68
2024/02/18 13:07:51;;;;;;;9.35;6.70;;;9.20;99.90;;;;;;4891361;29;20209;-66
2024/02/18 13:10:18;;;;;;;8.25;6.65;;;9.20;99.90;;;;;;4891037;29;20395;-69
2024/02/18 13:12:44;;;;;;;8.85;5.30;;;9.10;99.90;;;;;;4895200;29;20218;-67
2024/02/18 13:15:11;;;;;;;8.85;6.32;;;9.20;99.90;;;;;;4886701;29;20231;-69
2024/02/18 13:17:38;;;;;;;6.68;5.57;;;9.10;99.90;;;;;;4893237;29;20685;-67
2024/02/18 13:20:08;;;;;;;8.48;7.13;;;9.20;99.90;;;;;;4894230;29;20213;-69
2024/02/18 13:22:35;;;;;;;7.20;5.20;;;9.10;99.90;;;;;;4895116;29;20225;-68
2024/02/18 13:25:02;;;;;;;8.98;6.43;;;9.10;99.90;;;;;;4894972;29;20238;-69
2024/02/18 13:27:29;;;;;;;9.15;6.15;;;9.10;99.90;;;;;;4895202;29;20219;-69
2024/02/18 13:29:55;;;;;;;16.80;11.18;;;9.10;99.90;;;;;;4894899;29;20265;-69
2024/02/18 13:32:22;;;;;;;6.65;5.80;;;9.10;99.90;;;;;;4895422;29;20237;-69
2024/02/18 13:34:49;;;;;;;11.93;6.15;;;9.10;99.90;;;;;;4895210;29;20240;-68
2024/02/18 13:37:17;;;;;;;9.38;6.03;;;9.20;99.90;;;;;;4892340;29;20205;-68
2024/02/18 13:39:44;;;;;;;14.73;8.70;;;9.20;99.90;;;;;;4891635;29;20217;-69
2024/02/18 13:42:10;;;;;;;7.90;5.53;;;9.10;99.90;;;;;;4891365;29;20575;-68
2024/02/18 13:44:38;;;;;;;6.07;4.75;;;9.10;99.90;;;;;;4895412;29;20209;-69
2024/02/18 13:47:05;;;;;;;9.00;6.80;;;9.10;99.90;;;;;;4894745;29;20733;-68
2024/02/18 13:49:32;;;;;;;10.73;5.35;;;9.20;99.90;;;;;;4894800;29;20209;-68
2024/02/18 13:51:58;;;;;;;12.07;7.60;;;9.20;99.90;;;;;;4895187;29;20618;-68
2024/02/18 13:54:27;;;;;;;8.10;6.65;;;9.20;99.90;;;;;;4894359;29;20560;-68
2024/02/18 13:56:53;;;;;;;9.27;7.70;;;9.20;99.90;;;;;;4892936;29;20209;-68
2024/02/18 13:59:21;;;;;;;12.57;5.97;;;9.20;99.90;;;;;;4899333;29;20217;-69
2024/02/18 14:01:48;;;;;;;7.57;5.97;;;9.20;99.90;;;;;;4894182;29;20267;-68
2024/02/18 14:04:15;;;;;;;8.65;5.88;;;9.20;99.90;;;;;;4895369;29;20732;-69
2024/02/18 14:06:42;;;;;;;10.73;6.30;;;9.20;99.90;;;;;;4892311;29;20240;-69
2024/02/18 14:09:12;;;;;;;7.20;5.80;;;9.20;99.90;;;;;;4896166;29;20217;-71
2024/02/18 14:11:41;;;;;;;9.10;5.97;;;9.20;99.90;;;;;;4895516;29;20308;-72
2024/02/18 14:14:08;;;;;;;8.73;6.05;;;9.20;99.90;;;;;;4894021;29;21013;-70
2024/02/18 14:16:36;;;;;;;7.57;5.60;;;9.20;99.90;;;;;;4896594;29;20209;-69
2024/02/18 14:19:03;;;;;;;9.43;5.20;;;9.20;99.90;;;;;;4894552;29;20698;-71
2024/02/18 14:21:30;;;;;;;10.35;7.07;;;9.20;99.90;;;;;;4894983;29;20241;-71
2024/02/18 14:23:57;;;;;;;9.73;7.22;;;9.30;99.90;;;;;;4895997;29;20219;-70
2024/02/18 14:26:24;;;;;;;11.27;6.63;;;9.30;99.90;;;;;;4897926;29;20233;-70
2024/02/18 14:28:52;;;;;;;12.18;8.10;;;9.20;99.90;;;;;;4890115;29;20823;-71
2024/02/18 14:31:19;;;;;;;9.80;8.50;;;9.20;99.90;;;;;;4897046;29;20234;-71
2024/02/18 14:33:46;;;;;;;9.48;7.25;;;9.20;99.90;;;;;;4897828;29;20217;-69
2024/02/18 14:36:12;;;;;;;13.15;8.88;;;9.30;99.90;;;;;;4897210;29;20228;-70
2024/02/18 14:38:39;;;;;;;13.27;8.13;;;9.30;99.90;;;;;;4895750;29;20672;-69
2024/02/18 14:41:06;;;;;;;14.25;9.38;;;9.20;99.90;;;;;;4896341;29;20610;-70
2024/02/18 14:43:33;;;;;;;20.55;11.77;;;9.20;99.90;;;;;;4894942;29;20662;-71
2024/02/18 14:46:02;;;;;;;10.70;7.82;;;9.20;99.90;;;;;;4897545;29;20264;-70
2024/02/18 14:48:28;;;;;;;15.18;9.85;;;9.20;99.90;;;;;;4894047;29;20208;-69
2024/02/18 14:50:55;;;;;;;17.58;9.25;;;9.20;99.90;;;;;;4890410;29;20792;-69
2024/02/18 14:53:22;;;;;;;16.83;8.98;;;9.20;99.90;;;;;;4896454;29;20219;-70
2024/02/18 14:55:51;;;;;;;12.90;8.65;;;9.20;99.90;;;;;;4895593;29;20224;-70
2024/02/18 14:58:18;;;;;;;17.00;9.50;;;9.20;99.90;;;;;;4887510;29;20209;-71
2024/02/18 15:00:46;;;;;;;12.15;9.15;;;9.20;99.90;;;;;;4892586;29;20258;-69
2024/02/18 15:03:14;;;;;;;23.55;12.10;;;9.20;99.90;;;;;;4896008;29;20570;-70
2024/02/18 15:05:41;;;;;;;10.40;7.13;;;9.20;99.90;;;;;;4892337;29;20231;-70
2024/02/18 15:08:08;;;;;;;14.63;7.00;;;9.20;99.90;;;;;;4897241;29;20240;-70
2024/02/18 15:10:35;;;;;;;13.18;8.25;;;9.10;99.90;;;;;;4896685;29;20415;-69
2024/02/18 15:13:01;;;;;;;13.32;7.22;;;9.00;99.90;;;;;;4891912;29;20207;-71
2024/02/18 15:15:28;;;;;;;11.98;6.93;;;9.00;99.90;;;;;;4896608;29;20204;-70
2024/02/18 15:17:55;;;;;;;12.27;8.30;;;8.90;99.90;;;;;;4893802;29;20212;-71
2024/02/18 15:20:23;;;;;;;10.63;7.40;;;9.00;99.90;;;;;;4897661;29;20214;-71
2024/02/18 15:22:50;;;;;;;17.00;10.63;;;9.00;99.90;;;;;;4894722;29;20223;-70
2024/02/18 15:25:17;;;;;;;10.52;6.85;;;8.90;99.90;;;;;;4896650;29;20577;-69
2024/02/18 15:27:43;;;;;;;14.05;7.47;;;8.90;99.90;;;;;;4896488;29;20591;-70
2024/02/18 15:30:11;;;;;;;24.95;14.85;;;8.90;99.90;;;;;;4896280;29;20216;-72
2024/02/18 15:32:39;;;;;;;13.80;8.57;;;8.90;99.90;;;;;;4896624;29;20208;-71
2024/02/18 15:35:07;;;;;;;10.40;8.07;;;8.80;99.90;;;;;;4895083;29;20302;-69
2024/02/18 15:37:35;;;;;;;8.25;6.55;;;8.80;99.90;;;;;;4894095;29;20663;-70
2024/02/18 15:40:02;;;;;;;11.70;6.45;;;8.70;99.90;;;;;;4896072;29;20697;-71
2024/02/18 15:42:29;;;;;;;9.48;7.55;;;8.80;99.90;;;;;;4896055;29;20231;-69
2024/02/18 15:44:56;;;;;;;12.20;6.93;;;8.80;99.90;;;;;;4896401;29;20595;-71
2024/02/18 15:47:23;;;;;;;10.68;5.43;;;8.80;99.90;;;;;;4896241;29;20750;-70
2024/02/18 15:50:05;;;;;;;13.13;7.45;;;8.80;99.90;;;;;;4904071;29;20215;-70
2024/02/18 15:52:39;;;;;;;11.45;5.93;;;8.90;99.90;;;;;;4913371;29;20231;-69
2024/02/18 15:55:11;;;;;;;12.50;7.10;;;8.90;99.90;;;;;;4912168;29;20212;-69
2024/02/18 16:00:56;;;;;;;9.30;6.68;;;8.90;99.90;;;;;;4913402;29;20211;-70
2024/02/18 16:04:01;;;;;;;8.27;6.75;;;8.90;99.90;;;;;;4902707;29;20365;-68
2024/02/18 16:06:33;;;;;;;10.05;5.70;;;8.90;99.90;;;;;;4904250;29;20238;-69
2024/02/18 16:09:02;;;;;;;10.95;7.03;;;8.90;99.90;;;;;;4895727;29;20361;-69
2024/02/18 16:11:29;;;;;;;8.50;5.60;;;8.90;99.90;;;;;;4895753;29;20228;-68
2024/02/18 16:13:55;;;;;;;9.68;7.53;;;8.90;99.90;;;;;;4896218;29;20207;-69
2024/02/18 16:16:22;;;;;;;10.48;6.35;;;8.90;99.90;;;;;;4892356;29;20243;-68
2024/02/18 16:18:49;;;;;;;12.75;7.40;;;8.90;99.90;;;;;;4895503;29;20643;-70
2024/02/18 16:21:16;;;;;;;8.95;7.63;;;8.90;99.90;;;;;;4893594;29;20239;-69
2024/02/18 16:23:43;;;;;;;15.52;10.07;;;9.00;99.90;;;;;;4896524;29;20211;-68
2024/02/18 16:26:13;;;;;;;16.77;8.40;;;9.00;99.90;;;;;;4891582;29;20253;-69
2024/02/18 16:28:41;;;;;;;11.13;6.95;;;9.00;99.90;;;;;;4889224;29;20213;-67
2024/02/18 16:31:08;;;;;;;7.97;6.72;;;9.00;99.90;;;;;;4891574;29;20239;-69
2024/02/18 16:33:35;;;;;;;10.20;7.43;;;8.90;99.90;;;;;;4891721;29;20515;-68
2024/02/18 16:36:02;;;;;;;10.73;6.53;;;8.80;99.90;;;;;;4895341;29;20203;-69
2024/02/18 16:38:31;;;;;;;10.07;7.78;;;8.80;99.90;;;;;;4886904;29;20207;-69
2024/02/18 16:40:58;;;;;;;9.07;6.95;;;8.90;99.90;;;;;;4890390;29;20263;-70
2024/02/18 16:43:28;;;;;;;8.90;6.63;;;8.80;99.90;;;;;;4890004;29;20211;-69
2024/02/18 16:45:56;;;;;;;21.10;12.45;;;8.80;99.90;;;;;;4893624;29;20234;-68
2024/02/18 16:48:23;;;;;;;11.43;7.85;;;8.80;99.90;;;;;;4890714;29;20209;-68
2024/02/18 16:50:50;;;;;;;17.02;10.27;;;8.80;99.90;;;;;;4894025;29;20606;-69
2024/02/18 16:53:17;;;;;;;14.13;7.85;;;8.80;99.90;;;;;;4892127;29;20691;-70
2024/02/18 16:55:45;;;;;;;11.80;7.43;;;8.80;99.90;;;;;;4892745;29;20330;-70
2024/02/18 16:58:12;;;;;;;12.38;7.45;;;8.80;99.90;;;;;;4891186;29;20240;-69
2024/02/18 17:00:41;;;;;;;17.80;8.65;;;8.80;99.90;;;;;;4894358;29;20245;-69
2024/02/18 17:03:07;;;;;;;7.10;6.32;;;8.80;99.90;;;;;;4891561;29;20227;-69
2024/02/18 17:05:35;;;;;;;11.10;7.30;;;8.80;99.90;;;;;;4889751;29;20509;-70
2024/02/18 17:08:02;;;;;;;10.55;7.55;;;8.80;99.90;;;;;;4889196;29;20208;-70
2024/02/18 17:10:29;;;;;;;11.73;7.93;;;8.80;99.90;;;;;;4894862;29;20208;-69
2024/02/18 17:12:56;;;;;;;12.40;8.98;;;8.90;99.90;;;;;;4893161;29;20211;-67
2024/02/18 17:15:22;;;;;;;8.00;7.18;;;8.90;99.90;;;;;;4892692;29;20204;-68
2024/02/18 17:17:51;;;;;;;18.08;8.32;;;9.00;99.90;;;;;;4891142;29;20216;-68
2024/02/18 17:20:17;;;;;;;15.45;10.45;;;9.00;99.90;;;;;;4895229;29;20246;-69
2024/02/18 17:22:44;;;;;;;12.00;9.82;;;9.00;99.90;;;;;;4891290;29;20618;-68
2024/02/18 17:25:11;;;;;;;14.35;9.43;;;9.00;99.90;;;;;;4890352;29;20219;-69
2024/02/18 17:27:38;;;;;;;22.13;10.25;;;9.00;99.90;;;;;;4897683;29;20733;-68
2024/02/18 17:30:06;;;;;;;16.95;10.50;;;9.00;99.90;;;;;;4896602;29;20222;-69
2024/02/18 17:32:33;;;;;;;32.97;17.95;;;9.00;99.90;;;;;;4897348;29;20235;-69
2024/02/18 17:35:01;;;;;;;25.77;16.27;;;9.00;99.90;;;;;;4897318;29;20215;-69
2024/02/18 17:37:28;;;;;;;25.98;14.70;;;9.00;99.90;;;;;;4896121;29;20226;-69
2024/02/18 17:39:56;;;;;;;19.80;12.63;;;9.00;99.90;;;;;;4897280;29;20228;-68
2024/02/18 17:42:23;;;;;;;24.08;16.15;;;9.00;99.90;;;;;;4893618;29;20244;-70
2024/02/18 17:44:50;;;;;;;8.95;7.53;;;9.00;99.90;;;;;;4878141;29;20593;-69
2024/02/18 17:47:17;;;;;;;29.35;16.15;;;8.90;99.90;;;;;;4895585;29;20332;-70
2024/02/18 17:49:44;;;;;;;12.05;8.50;;;9.00;99.90;;;;;;4898300;29;20246;-69
2024/02/18 17:52:12;;;;;;;8.43;6.43;;;8.90;99.90;;;;;;4894169;29;20231;-72
2024/02/18 17:54:39;;;;;;;10.48;9.15;;;8.90;99.90;;;;;;4896201;29;20219;-70
2024/02/18 17:57:06;;;;;;;8.32;7.15;;;9.00;99.90;;;;;;4895719;29;20217;-69
2024/02/18 17:59:32;;;;;;;7.90;7.07;;;8.90;99.90;;;;;;4892038;29;20278;-69